Strona główna
METAR-TAF:

METAR-TAF

Lotnisko :

Nancy, Francja

Szerokość geograficzna: 48-41N, Długość geograficzna: 006-13E, wysokość: 225 m

Aktualna obserwacja pogody

Raport powstał 16 minut temu, godzina 09:00 UTC
Wiatr 5 kt od zachodnio-północny zachód, zmienny między zachodnio-południowy zachód i północno-północny zachód
Temperatura 24°C
Wilgotność 54%
Ciśnienie 1022 hPa
Widzialność 10 km lub więcej
Przerywane chmury na wysokości 3500 ft

METAR: LFSN 210900Z AUTO 29005KT 240V330 9999 BKN035 24/14 Q1022

czas: 11:16 (09:16 UTC)


TAF: brakujący

Obserwacja i prognoza pogody dla ponad 4000 lotnisk (raport METAR i TAF).

Dostępne stacje oznaczono żółtymi i czerwonymi punktami na mapie.

Najedź kursorem aby zobaczyć nazwę stacji.

Kliknij aby zobaczyć obserwacje i prognozy pogody.

Aby zmienić mapę: kliknij na zielony przycisk z czarnym krzyżykiem, aby powiększyć; na zielony przycisk z myślnikiem, aby pomniejszyć; na zielone strzałki, aby przejść do map sąsiednich.


METAR-TAF: